createdAt,value
2022-10-13T00:00:54.266Z,101045
2022-10-13T00:01:54.594Z,101046.92
2022-10-13T00:02:54.925Z,101045.05
2022-10-13T00:03:55.222Z,101047.02
2022-10-13T00:04:55.590Z,101043.33
2022-10-13T00:05:55.851Z,101047.42
2022-10-13T00:06:56.275Z,101046.98
2022-10-13T00:07:57.298Z,101051.45
2022-10-13T00:08:58.842Z,101051.87
2022-10-13T00:09:57.414Z,101050.8
2022-10-13T00:10:57.526Z,101047.75
2022-10-13T00:11:58.122Z,101050.95
2022-10-13T00:12:58.101Z,101049.09
2022-10-13T00:14:01.025Z,101049.89
2022-10-13T00:14:59.051Z,101048.42
2022-10-13T00:16:01.963Z,101047.48
2022-10-13T00:16:59.508Z,101047.33
2022-10-13T00:17:59.819Z,101045.57
2022-10-13T00:19:00.105Z,101046.77
2022-10-13T00:20:00.551Z,101049.2
2022-10-13T00:21:00.974Z,101047.89
2022-10-13T00:22:01.275Z,101046.33
2022-10-13T00:23:01.509Z,101045.03
2022-10-13T00:24:02.012Z,101050.52
2022-10-13T00:25:02.289Z,101051.25
2022-10-13T00:26:05.921Z,101049
2022-10-13T00:27:03.577Z,101048.92
2022-10-13T00:28:03.533Z,101051
2022-10-13T00:29:03.805Z,101048.91
2022-10-13T00:30:05.649Z,101049.32
2022-10-13T00:32:06.469Z,101049.27
2022-10-13T00:33:07.613Z,101049.63
2022-10-13T00:34:07.008Z,101050.22
2022-10-13T00:35:08.334Z,101052.59
2022-10-13T00:36:08.344Z,101051.21
2022-10-13T00:37:08.461Z,101052.74
2022-10-13T00:38:08.557Z,101053.27
2022-10-13T00:39:08.871Z,101052.86
2022-10-13T00:40:09.715Z,101049.91
2022-10-13T00:41:09.702Z,101052.69
2022-10-13T00:42:16.008Z,101049.93
2022-10-13T00:45:24.969Z,101049.97
2022-10-13T00:46:23.668Z,101051.96
2022-10-13T00:47:23.318Z,101051.83
2022-10-13T00:48:28.392Z,101052.39
2022-10-13T00:49:25.940Z,101049.16
2022-10-13T00:50:35.619Z,101045.55
2022-10-13T00:51:32.193Z,101049.45
2022-10-13T00:52:31.587Z,101047.48
2022-10-13T00:53:34.572Z,101043.55
2022-10-13T00:54:31.874Z,101047.5
2022-10-13T00:55:36.728Z,101047.79
2022-10-13T00:56:36.294Z,101048.44
2022-10-13T00:57:34.761Z,101047.77
2022-10-13T00:58:36.646Z,101050.19
2022-10-13T00:59:36.339Z,101048.28
2022-10-13T01:00:35.601Z,101046.2
2022-10-13T01:01:36.046Z,101044.72
2022-10-13T01:02:37.802Z,101044.05
2022-10-13T01:03:37.393Z,101043.84
2022-10-13T01:04:44.071Z,101042.73
2022-10-13T01:05:42.803Z,101043.7
2022-10-13T01:06:41.924Z,101040.23
2022-10-13T01:07:42.335Z,101042.23
2022-10-13T01:08:42.293Z,101040.8
2022-10-13T01:09:42.842Z,101045.73
2022-10-13T01:42:11.102Z,101065.11
2022-10-13T01:45:10.944Z,101061.9
2022-10-13T01:46:16.383Z,101064.8
2022-10-13T01:47:11.670Z,101058.59
2022-10-13T01:48:10.971Z,101062.23
2022-10-13T01:49:16.090Z,101057.16
2022-10-13T01:50:17.227Z,101059.97
2022-10-13T01:51:18.874Z,101057.97
2022-10-13T01:52:19.327Z,101059.17
2022-10-13T01:53:18.571Z,101056.53
2022-10-13T01:54:17.213Z,101057.02
2022-10-13T01:55:17.768Z,101052.72
2022-10-13T01:56:18.596Z,101051.89
2022-10-13T01:58:23.522Z,101057.03
2022-10-13T01:59:24.932Z,101052.95
2022-10-13T02:00:23.148Z,101053.11
2022-10-13T02:06:52.448Z,101057.1
2022-10-13T02:16:15.861Z,101057.73
2022-10-13T02:17:16.182Z,101057.34
2022-10-13T02:18:17.401Z,101058.44
2022-10-13T02:19:17.379Z,101053.59
2022-10-13T02:20:17.761Z,101053.45
2022-10-13T02:21:17.120Z,101055.8
2022-10-13T02:22:16.772Z,101054.14
2022-10-13T02:23:17.747Z,101056.6
2022-10-13T02:24:16.655Z,101059.99
2022-10-13T02:25:16.839Z,101058.51
2022-10-13T02:26:17.569Z,101058.59
2022-10-13T02:27:17.777Z,101060.42
2022-10-13T02:28:19.196Z,101061.62
2022-10-13T02:29:18.686Z,101063.23
2022-10-13T02:31:22.619Z,101062.09
2022-10-13T02:32:23.544Z,101064.95
2022-10-13T02:33:23.151Z,101066.48
2022-10-13T02:34:23.449Z,101066.39
2022-10-13T02:35:24.348Z,101066.31
2022-10-13T02:36:24.385Z,101061.7
2022-10-13T02:37:24.508Z,101061.45
2022-10-13T02:38:24.931Z,101061.16
2022-10-13T02:39:25.188Z,101067.66
2022-10-13T02:40:25.851Z,101067.16
2022-10-13T02:41:26.065Z,101070
2022-10-13T02:42:26.522Z,101071.22
2022-10-13T02:43:26.591Z,101072.22
2022-10-13T02:44:26.867Z,101072.77
2022-10-13T02:45:27.223Z,101068.92
2022-10-13T02:46:27.528Z,101069.11
2022-10-13T02:47:27.837Z,101072.78
2022-10-13T02:48:28.051Z,101066.17
2022-10-13T02:49:28.767Z,101065.97
2022-10-13T02:50:28.780Z,101065.25
2022-10-13T02:51:29.198Z,101069.19
2022-10-13T02:52:29.269Z,101068.61
2022-10-13T02:53:29.821Z,101069.14
2022-10-13T02:54:30.143Z,101072.69
2022-10-13T02:55:30.559Z,101072.09
2022-10-13T02:56:30.634Z,101075.85
2022-10-13T02:57:31.182Z,101069.59
2022-10-13T02:58:31.288Z,101069.48
2022-10-13T02:59:31.921Z,101072.36
2022-10-13T03:00:32.031Z,101067.5
2022-10-13T03:01:32.290Z,101069.68
2022-10-13T03:02:32.801Z,101073.97
2022-10-13T03:03:33.160Z,101072.09
2022-10-13T03:04:33.594Z,101068.72
2022-10-13T03:05:33.969Z,101066.89
2022-10-13T03:06:33.908Z,101067.46
2022-10-13T03:07:34.296Z,101066.61
2022-10-13T03:08:35.665Z,101062.88
2022-10-13T03:09:34.994Z,101064.53
2022-10-13T03:10:35.616Z,101064.62
2022-10-13T03:11:35.786Z,101064.9
2022-10-13T03:12:35.947Z,101063.66
2022-10-13T03:13:37.212Z,101064.96
2022-10-13T03:14:36.599Z,101066.31
2022-10-13T03:15:36.957Z,101061.97
2022-10-13T03:16:37.349Z,101065.86
2022-10-13T03:17:37.658Z,101058.69
2022-10-13T03:18:37.848Z,101062.52
2022-10-13T03:19:38.299Z,101059.86
2022-10-13T03:20:38.714Z,101062.14
2022-10-13T03:21:39.941Z,101060.27
2022-10-13T03:22:39.268Z,101061.16
2022-10-13T03:23:39.953Z,101059.37
2022-10-13T03:24:40.070Z,101060.93
2022-10-13T03:25:40.439Z,101064.43
2022-10-13T03:26:40.715Z,101063.98
2022-10-13T03:27:41.013Z,101063.41
2022-10-13T03:28:41.289Z,101065.86
2022-10-13T03:29:41.492Z,101062.25
2022-10-13T03:30:42.007Z,101071.77
2022-10-13T03:31:42.673Z,101067.63
2022-10-13T03:32:42.678Z,101070.36
2022-10-13T03:33:42.865Z,101068.41
2022-10-13T03:34:43.218Z,101071.11
2022-10-13T03:35:43.514Z,101073.89
2022-10-13T03:36:43.936Z,101073.78
2022-10-13T03:37:44.351Z,101073.73
2022-10-13T03:38:44.980Z,101070.39
2022-10-13T03:39:44.852Z,101072.28
2022-10-13T03:40:45.254Z,101066.68
2022-10-13T03:41:45.601Z,101067.08
2022-10-13T03:42:46.021Z,101065.03
2022-10-13T03:43:46.227Z,101064.23
2022-10-13T03:44:50.397Z,101061.83
2022-10-13T03:46:54.655Z,101060.22
2022-10-13T03:47:54.756Z,101057.27
2022-10-13T03:48:55.784Z,101056.17
2022-10-13T03:49:55.595Z,101059.28
2022-10-13T03:50:55.899Z,101058.09
2022-10-13T03:51:56.116Z,101058.59
2022-10-13T03:52:56.532Z,101058.55
2022-10-13T03:53:57.152Z,101065.98
2022-10-13T03:54:57.262Z,101060.3
2022-10-13T03:55:57.486Z,101060.34
2022-10-13T03:56:57.886Z,101060.14
2022-10-13T03:57:58.417Z,101061.78
2022-10-13T03:59:00.220Z,101056.51
2022-10-13T03:59:58.945Z,101059.57
2022-10-13T04:02:02.310Z,101062.6
2022-10-13T04:03:02.336Z,101060.61
2022-10-13T04:04:03.237Z,101062.42
2022-10-13T04:05:03.274Z,101058.23
2022-10-13T04:06:05.480Z,101062.11
2022-10-13T04:07:03.799Z,101064.19
2022-10-13T04:08:05.449Z,101066.16
2022-10-13T04:09:04.422Z,101062.38
2022-10-13T04:10:07.907Z,101061.41
2022-10-13T04:11:12.720Z,101064.55
2022-10-13T04:12:10.295Z,101059.9
2022-10-13T04:13:10.707Z,101061.67
2022-10-13T04:14:10.692Z,101061.6
2022-10-13T04:15:11.763Z,101064.63
2022-10-13T04:17:12.600Z,101063.85
2022-10-13T04:18:13.210Z,101065
2022-10-13T04:19:14.824Z,101066.88
2022-10-13T04:20:13.919Z,101062.92
2022-10-13T04:21:15.256Z,101066.52
2022-10-13T04:22:14.713Z,101067.91
2022-10-13T04:23:14.686Z,101066.15
2022-10-13T04:24:16.405Z,101066.44
2022-10-13T04:25:15.479Z,101068.44
2022-10-13T04:26:21.452Z,101067.3
2022-10-13T04:27:18.985Z,101065.33
2022-10-13T04:28:20.089Z,101067.17
2022-10-13T04:29:19.823Z,101068.35
2022-10-13T04:30:20.141Z,101069.69
2022-10-13T04:31:20.629Z,101066.67
2022-10-13T04:32:21.277Z,101073.2
2022-10-13T04:33:21.399Z,101065.94
2022-10-13T04:34:21.514Z,101064.38
2022-10-13T04:35:21.914Z,101067.41
2022-10-13T04:36:22.550Z,101069.61
2022-10-13T04:37:22.530Z,101065.56
2022-10-13T04:38:22.942Z,101067.81
2022-10-13T04:39:23.385Z,101068.62
2022-10-13T04:40:23.772Z,101067.42
2022-10-13T04:41:23.571Z,101066.23
2022-10-13T04:42:24.204Z,101065.62
2022-10-13T04:43:24.541Z,101069.84
2022-10-13T04:44:24.755Z,101069.42
2022-10-13T04:45:25.593Z,101066.09
2022-10-13T04:46:29.580Z,101069.92
2022-10-13T04:47:27.095Z,101067.17
2022-10-13T04:48:27.663Z,101067.45
2022-10-13T04:49:28.230Z,101063.48
2022-10-13T04:50:28.321Z,101068.05
2022-10-13T04:51:28.667Z,101069.6
2022-10-13T04:52:28.877Z,101064.84
2022-10-13T04:53:30.531Z,101068.03
2022-10-13T04:54:29.699Z,101067.55
2022-10-13T04:55:30.344Z,101069.34
2022-10-13T04:56:30.253Z,101065.42
2022-10-13T04:57:30.563Z,101066.86
2022-10-13T04:58:30.983Z,101065.5
2022-10-13T04:59:31.187Z,101064.55
2022-10-13T05:00:31.638Z,101066.19
2022-10-13T05:01:33.133Z,101069.45
2022-10-13T05:02:32.121Z,101071.94
2022-10-13T05:03:33.533Z,101068.97
2022-10-13T05:04:32.935Z,101070.84
2022-10-13T05:05:35.424Z,101070.84
2022-10-13T05:06:41.626Z,101071.7
2022-10-13T05:07:36.538Z,101074.9
2022-10-13T05:08:37.000Z,101075.07
2022-10-13T05:09:37.092Z,101075.32
2022-10-13T05:10:37.522Z,101077.19
2022-10-13T05:11:38.041Z,101078.42
2022-10-13T05:12:38.559Z,101081.89
2022-10-13T05:13:39.478Z,101077.38
2022-10-13T05:14:38.761Z,101078.41
2022-10-13T05:15:39.803Z,101080.77
2022-10-13T05:16:39.701Z,101077.79
2022-10-13T05:17:39.886Z,101080.03
2022-10-13T05:18:40.750Z,101077.33
2022-10-13T05:19:41.121Z,101078.55
2022-10-13T05:20:41.255Z,101076.09
2022-10-13T05:21:43.680Z,101071.71
2022-10-13T05:22:42.403Z,101076.56
2022-10-13T05:23:42.566Z,101077.02
2022-10-13T05:24:42.428Z,101082.14
2022-10-13T05:25:42.735Z,101083.42
2022-10-13T05:26:42.746Z,101084.02
2022-10-13T05:27:43.874Z,101080.67
2022-10-13T05:28:44.051Z,101084.42
2022-10-13T05:29:44.054Z,101088.85
2022-10-13T05:30:46.377Z,101082.2
2022-10-13T05:31:44.178Z,101089.5
2022-10-13T05:32:44.408Z,101088.65
2022-10-13T05:33:46.078Z,101089.11
2022-10-13T05:34:47.573Z,101088.66
2022-10-13T05:35:46.372Z,101086.34
2022-10-13T05:36:46.171Z,101092.18
2022-10-13T05:37:46.493Z,101086.61
2022-10-13T05:38:51.424Z,101085.98
2022-10-13T05:39:49.171Z,101085.66
2022-10-13T05:40:49.585Z,101089.7
2022-10-13T05:41:50.120Z,101091.2
2022-10-13T05:42:53.625Z,101091.15
2022-10-13T05:43:54.303Z,101087.8
2022-10-13T05:44:51.974Z,101094.19
2022-10-13T05:45:52.590Z,101093.73
2022-10-13T05:46:53.080Z,101098.78
2022-10-13T05:47:53.213Z,101092.61
2022-10-13T05:48:53.610Z,101099.44
2022-10-13T05:49:54.025Z,101103.69
2022-10-13T05:50:55.721Z,101101.89
2022-10-13T05:51:57.763Z,101101.41
2022-10-13T05:52:57.017Z,101099.08
2022-10-13T05:54:04.611Z,101097.19
2022-10-13T05:55:03.266Z,101094.61
2022-10-13T05:56:07.169Z,101097.05
2022-10-13T05:57:17.546Z,101097.06
2022-10-13T05:58:05.761Z,101095.49
2022-10-13T05:59:08.332Z,101097.28
2022-10-13T06:00:09.568Z,101097.06
2022-10-13T06:01:11.843Z,101094.13
2022-10-13T06:02:12.676Z,101093.38
2022-10-13T06:03:19.507Z,101093.87
2022-10-13T06:04:20.608Z,101094.41
2022-10-13T06:05:16.782Z,101093.64
2022-10-13T06:06:14.934Z,101092.03
2022-10-13T06:07:15.041Z,101093.02
2022-10-13T06:08:15.660Z,101094.28
2022-10-13T06:09:16.069Z,101092.54
2022-10-13T06:10:16.169Z,101092.28
2022-10-13T06:11:15.978Z,101090.55
2022-10-13T06:12:16.285Z,101092.16
2022-10-13T06:13:16.595Z,101092.92
2022-10-13T06:14:16.812Z,101089.84
2022-10-13T06:15:17.532Z,101090.59
2022-10-13T06:16:17.673Z,101095.61
2022-10-13T06:17:17.957Z,101091.75
2022-10-13T06:18:18.382Z,101090.67
2022-10-13T06:19:19.024Z,101088.48
2022-10-13T06:20:19.818Z,101089.81
2022-10-13T06:21:19.332Z,101089.16
2022-10-13T06:22:20.029Z,101089.95
2022-10-13T06:23:20.035Z,101092.23
2022-10-13T06:24:20.774Z,101093.89
2022-10-13T06:25:20.791Z,101092.11
2022-10-13T06:26:21.816Z,101094.84
2022-10-13T06:27:21.504Z,101090.77
2022-10-13T06:28:21.722Z,101092.62
2022-10-13T06:29:22.645Z,101091.61
2022-10-13T06:30:22.614Z,101093.16
2022-10-13T06:31:23.004Z,101092.72
2022-10-13T06:32:23.377Z,101095.77
2022-10-13T06:33:25.129Z,101093.2
2022-10-13T06:34:24.116Z,101091.3
2022-10-13T06:35:24.010Z,101096.54
2022-10-13T06:36:24.743Z,101098.14
2022-10-13T06:37:27.345Z,101097.5
2022-10-13T06:38:25.070Z,101093.58
2022-10-13T06:39:25.467Z,101092.84
2022-10-13T06:40:25.682Z,101096.85
2022-10-13T06:41:26.311Z,101091.69
2022-10-13T06:42:26.421Z,101094.39
2022-10-13T06:43:33.334Z,101099.7
2022-10-13T06:44:32.278Z,101096.34
2022-10-13T06:45:31.551Z,101096.77
2022-10-13T06:46:32.071Z,101094.88
2022-10-13T06:47:32.285Z,101102.62
2022-10-13T06:48:32.498Z,101100.91
2022-10-13T06:49:32.964Z,101102.33
2022-10-13T06:50:33.174Z,101101.05
2022-10-13T06:51:33.848Z,101107.84
2022-10-13T06:52:33.868Z,101102.83
2022-10-13T06:53:34.372Z,101100.27
2022-10-13T06:54:34.584Z,101106.88
2022-10-13T06:55:34.897Z,101099.94
2022-10-13T06:56:35.521Z,101104.28
2022-10-13T06:57:35.641Z,101104.67
2022-10-13T06:58:37.070Z,101103.83
2022-10-13T06:59:36.459Z,101106.31
2022-10-13T07:00:37.246Z,101105.79
2022-10-13T07:01:41.362Z,101107
2022-10-13T07:02:39.174Z,101103.19
2022-10-13T07:03:39.565Z,101102.8
2022-10-13T07:04:39.920Z,101100.9
2022-10-13T07:05:40.294Z,101105.25
2022-10-13T07:06:41.223Z,101106.18
2022-10-13T07:07:40.813Z,101102.89
2022-10-13T07:08:41.334Z,101101.13
2022-10-13T07:09:41.748Z,101102.67
2022-10-13T07:10:42.474Z,101106.53
2022-10-13T07:11:45.168Z,101109.48
2022-10-13T07:12:42.698Z,101112.83
2022-10-13T07:13:46.272Z,101109.48
2022-10-13T07:14:44.658Z,101110.81
2022-10-13T07:15:44.957Z,101108.5
2022-10-13T07:16:45.389Z,101113.97
2022-10-13T07:17:45.690Z,101112.99
2022-10-13T07:18:47.748Z,101114.38
2022-10-13T07:19:46.425Z,101110.85
2022-10-13T07:20:46.635Z,101110.36
2022-10-13T07:21:47.056Z,101113.8
2022-10-13T07:22:47.584Z,101114.77
2022-10-13T07:23:48.084Z,101112.94
2022-10-13T07:24:48.053Z,101113.84
2022-10-13T07:25:48.717Z,101114.39
2022-10-13T07:26:49.126Z,101117.33
2022-10-13T07:27:49.322Z,101116.18
2022-10-13T07:28:49.819Z,101115.45
2022-10-13T07:29:50.187Z,101114
2022-10-13T07:30:50.188Z,101116.44
2022-10-13T07:31:51.108Z,101117.59
2022-10-13T07:32:51.125Z,101118.9
2022-10-13T07:33:51.433Z,101118.08
2022-10-13T07:34:54.821Z,101117.14
2022-10-13T07:35:52.587Z,101113.81
2022-10-13T07:36:52.999Z,101115.44
2022-10-13T07:37:54.015Z,101112.75
2022-10-13T07:38:53.828Z,101109.66
2022-10-13T07:39:54.239Z,101112.59
2022-10-13T07:40:54.358Z,101112.52
2022-10-13T07:41:54.568Z,101111.2
2022-10-13T07:42:57.032Z,101115.75
2022-10-13T07:43:56.622Z,101111.41
2022-10-13T07:44:55.815Z,101109
2022-10-13T07:45:59.195Z,101112.19
2022-10-13T07:46:56.948Z,101114.47
2022-10-13T07:47:57.251Z,101114.21
2022-10-13T07:48:57.790Z,101112.73
2022-10-13T07:49:58.049Z,101111.61
2022-10-13T07:50:58.427Z,101111.47
2022-10-13T07:51:58.534Z,101115.67
2022-10-13T07:52:59.068Z,101110.78
2022-10-13T07:53:59.597Z,101113.58
2022-10-13T07:54:59.890Z,101115.11
2022-10-13T07:56:04.793Z,101114.73
2022-10-13T07:57:02.441Z,101116.09
2022-10-13T07:58:03.582Z,101116.97
2022-10-13T07:59:03.478Z,101114.03
2022-10-13T08:00:05.633Z,101118.65
2022-10-13T08:01:05.037Z,101115.75
2022-10-13T08:02:04.728Z,101117.89
2022-10-13T08:03:05.117Z,101118.55
2022-10-13T08:04:05.409Z,101122.37
2022-10-13T08:05:06.382Z,101119.02
2022-10-13T08:06:07.205Z,101118.09
2022-10-13T08:07:07.010Z,101119.84
2022-10-13T08:08:06.823Z,101115.98
2022-10-13T08:09:07.130Z,101115.56
2022-10-13T08:10:08.580Z,101116.95
2022-10-13T08:11:13.491Z,101117.04
2022-10-13T08:12:08.990Z,101116.2
2022-10-13T08:13:10.838Z,101115.48
2022-10-13T08:14:12.280Z,101113.84
2022-10-13T08:15:10.764Z,101118.5
2022-10-13T08:16:10.462Z,101119.02
2022-10-13T08:17:10.645Z,101114.52
2022-10-13T08:18:12.817Z,101120.8
2022-10-13T08:19:15.382Z,101123.38
2022-10-13T08:20:12.730Z,101119.36
2022-10-13T08:22:17.506Z,101123.06
2022-10-13T08:23:17.772Z,101122.98
2022-10-13T08:24:19.194Z,101122.96
2022-10-13T08:25:18.388Z,101125.05
2022-10-13T08:27:26.659Z,101121.5
2022-10-13T08:28:28.075Z,101124.69
2022-10-13T08:29:25.777Z,101122.31
2022-10-13T08:30:26.170Z,101121.08
2022-10-13T08:31:26.633Z,101128.31
2022-10-13T08:32:26.628Z,101128.98
2022-10-13T08:33:27.400Z,101124.11
2022-10-13T08:34:27.672Z,101128.77
2022-10-13T08:35:30.154Z,101126.5
2022-10-13T08:36:31.571Z,101126.56
2022-10-13T08:37:31.884Z,101129.58
2022-10-13T08:38:32.413Z,101126.55
2022-10-13T08:39:32.612Z,101128.46
2022-10-13T08:40:33.145Z,101126.75
2022-10-13T08:41:44.525Z,101119.75
2022-10-13T08:42:37.005Z,101127.47
2022-10-13T08:43:45.305Z,101123.64
2022-10-13T08:45:43.874Z,101125.56
2022-10-13T08:47:51.964Z,101124.48
2022-10-13T08:48:49.373Z,101125.73
2022-10-13T08:49:50.397Z,101122.49
2022-10-13T08:50:54.867Z,101116.97
2022-10-13T08:51:52.154Z,101120.27
2022-10-13T08:53:53.292Z,101116.97
2022-10-13T08:54:55.354Z,101118.38
2022-10-13T08:56:01.187Z,101121.28
2022-10-13T08:56:58.941Z,101120.7
2022-10-13T08:58:00.896Z,101118.14
2022-10-13T08:58:59.465Z,101120.34
2022-10-13T08:59:59.634Z,101122.48
2022-10-13T09:06:22.973Z,101121.71
2022-10-13T09:07:26.664Z,101120.98
2022-10-13T09:08:20.788Z,101116.84
2022-10-13T09:09:19.439Z,101121.12
2022-10-13T09:10:20.057Z,101119.73
2022-10-13T09:11:20.700Z,101120.38
2022-10-13T09:12:22.307Z,101117.48
2022-10-13T09:13:21.067Z,101114.7
2022-10-13T09:14:33.376Z,101112.09
2022-10-13T09:15:25.744Z,101112.95
2022-10-13T09:16:37.873Z,101110.83
2022-10-13T09:17:30.448Z,101110.25
2022-10-13T09:18:32.153Z,101109.75
2022-10-13T09:19:34.511Z,101107.18
2022-10-13T09:20:32.070Z,101108.92
2022-10-13T09:21:32.285Z,101102.7
2022-10-13T09:22:40.478Z,101111.23
2022-10-13T09:23:34.413Z,101108.73
2022-10-13T09:24:33.624Z,101109.28
2022-10-13T09:28:39.841Z,101113.69
2022-10-13T09:29:40.214Z,101108.8
2022-10-13T09:30:42.679Z,101111
2022-10-13T09:31:40.893Z,101106.81
2022-10-13T09:32:41.154Z,101109.44
2022-10-13T09:33:41.619Z,101106.49
2022-10-13T09:34:42.304Z,101110.69
2022-10-13T09:45:18.414Z,101108.42
2022-10-13T09:47:21.621Z,101108.03
2022-10-13T09:50:29.916Z,101108.37
2022-10-13T09:52:28.690Z,101115.61
2022-10-13T09:55:36.501Z,101111.47
2022-10-13T09:57:49.812Z,101111.01
2022-10-13T09:59:51.926Z,101105.44
2022-10-13T10:00:46.366Z,101106.69
2022-10-13T10:01:47.493Z,101103.14
2022-10-13T10:03:51.543Z,101103.37
2022-10-13T10:04:53.245Z,101107.77
2022-10-13T10:06:52.643Z,101101.15
2022-10-13T10:07:53.373Z,101102.56
2022-10-13T10:11:03.787Z,101103.39
2022-10-13T10:12:03.218Z,101096.83
2022-10-13T10:13:03.025Z,101101.33
2022-10-13T10:36:10.657Z,101083.48
2022-10-13T10:44:32.271Z,101082.29
2022-10-13T10:45:33.452Z,101076.84
2022-10-13T10:46:34.682Z,101071.43
2022-10-13T10:49:36.282Z,101070.34
2022-10-13T10:50:35.091Z,101070.28
2022-10-13T10:51:37.988Z,101066.59
2022-10-13T11:00:06.208Z,101059.5
2022-10-13T11:05:13.815Z,101058.09
2022-10-13T11:10:22.046Z,101065.02
2022-10-13T11:12:24.558Z,101064.88
2022-10-13T11:13:23.898Z,101065.34
2022-10-13T11:14:33.230Z,101064.45
2022-10-13T11:17:33.142Z,101065.2
2022-10-13T11:19:40.732Z,101057.8
2022-10-13T11:23:50.804Z,101054.83
2022-10-13T11:25:51.519Z,101056.09
2022-10-13T11:26:51.733Z,101057.26
2022-10-13T11:27:52.250Z,101057.36
2022-10-13T11:28:52.796Z,101056.64
2022-10-13T11:31:57.707Z,101051.97
2022-10-13T11:32:58.222Z,101053.73
2022-10-13T11:34:01.315Z,101047.94
2022-10-13T11:44:38.250Z,101040.98
2022-10-13T11:56:02.479Z,101030.67
2022-10-13T11:57:02.954Z,101033.16
2022-10-13T11:59:05.636Z,101027.21
2022-10-13T12:08:33.700Z,101030
2022-10-13T12:09:32.790Z,101025.92
2022-10-13T12:10:35.129Z,101029.65
2022-10-13T12:11:36.465Z,101030.38
2022-10-13T12:12:34.733Z,101030.64
2022-10-13T12:13:36.186Z,101032.23
2022-10-13T12:14:43.150Z,101029.76
2022-10-13T12:15:40.285Z,101027.21
2022-10-13T12:16:37.861Z,101031.66
2022-10-13T12:17:38.358Z,101027.43
2022-10-13T12:18:40.722Z,101026.51
2022-10-13T12:19:40.626Z,101025.39
2022-10-13T12:20:39.707Z,101026.77
2022-10-13T12:22:48.421Z,101021.84
2022-10-13T12:23:47.506Z,101022.05
2022-10-13T12:26:51.719Z,101021.53
2022-10-13T12:27:54.507Z,101021.61
2022-10-13T12:29:54.109Z,101019.7
2022-10-13T12:30:57.175Z,101018.94
2022-10-13T12:31:55.235Z,101017.59
2022-10-13T12:32:57.982Z,101017.56
2022-10-13T12:37:10.521Z,101017.36
2022-10-13T12:38:07.564Z,101020.88
2022-10-13T12:39:08.284Z,101020.51
2022-10-13T12:40:06.533Z,101018.22
2022-10-13T12:41:06.669Z,101017.27
2022-10-13T12:42:11.692Z,101019.17
2022-10-13T12:43:16.710Z,101016.16
2022-10-13T12:44:19.855Z,101018.47
2022-10-13T12:45:26.489Z,101020.72
2022-10-13T12:48:36.759Z,101016.78
2022-10-13T12:49:34.461Z,101020.16
2022-10-13T12:50:34.908Z,101020.8
2022-10-13T12:51:32.756Z,101015.12
2022-10-13T12:52:34.690Z,101019.44
2022-10-13T12:53:33.227Z,101017.91
2022-10-13T12:54:38.021Z,101014.8
2022-10-13T12:56:37.847Z,101011.37
2022-10-13T12:57:38.293Z,101011.03
2022-10-13T12:59:42.820Z,101009.33
2022-10-13T13:00:41.427Z,101007.72
2022-10-13T13:01:41.091Z,101010.19
2022-10-13T13:02:41.622Z,101010.3
2022-10-13T13:03:43.792Z,101007.98
2022-10-13T13:04:43.904Z,101010.37
2022-10-13T13:05:47.933Z,101009.02
2022-10-13T13:07:53.117Z,101008.78
2022-10-13T13:08:45.641Z,101013.8
2022-10-13T13:10:55.425Z,101008.02
2022-10-13T13:12:54.995Z,101008.22
2022-10-13T13:14:56.778Z,101005.81
2022-10-13T13:20:21.967Z,101006.56
2022-10-13T13:21:16.756Z,101007.43
2022-10-13T13:22:15.129Z,101007.53
2022-10-13T13:23:15.127Z,101004.73
2022-10-13T13:24:22.017Z,101003.32
2022-10-13T13:25:16.066Z,101003.48
2022-10-13T13:26:24.235Z,101004.2
2022-10-13T13:28:18.874Z,101002.98
2022-10-13T13:29:19.175Z,100999.23
2022-10-13T13:30:21.933Z,100998.36
2022-10-13T13:31:22.254Z,100996.13
2022-10-13T13:32:21.996Z,100996.51
2022-10-13T13:33:20.677Z,100997.2
2022-10-13T13:34:23.809Z,100994.11
2022-10-13T13:35:21.993Z,100996.98
2022-10-13T13:36:25.157Z,100992.52
2022-10-13T13:38:24.652Z,100995.45
2022-10-13T13:39:25.168Z,100995.95
2022-10-13T13:40:27.646Z,100996.88
2022-10-13T13:41:26.097Z,100995.35
2022-10-13T13:42:28.217Z,100993.98
2022-10-13T13:43:26.652Z,100992.02
2022-10-13T13:44:27.155Z,100996.84
2022-10-13T13:45:27.457Z,100999.93
2022-10-13T13:46:27.992Z,100998.79
2022-10-13T13:47:29.022Z,100998.5
2022-10-13T13:48:28.824Z,100999.77
2022-10-13T13:49:29.297Z,101000.95
2022-10-13T13:51:31.897Z,100999.59
2022-10-13T13:52:32.119Z,100997.49
2022-10-13T13:53:32.742Z,100997.84
2022-10-13T13:54:33.055Z,101001.12
2022-10-13T13:55:33.461Z,100999.89
2022-10-13T13:56:33.999Z,101001.16
2022-10-13T13:57:34.413Z,100998.45
2022-10-13T13:58:34.735Z,100997.95
2022-10-13T13:59:35.025Z,101000.12
2022-10-13T14:00:35.343Z,100999.23
2022-10-13T14:01:35.889Z,100996.27
2022-10-13T14:02:36.272Z,100999.7
2022-10-13T14:03:36.806Z,101001.38
2022-10-13T14:04:37.262Z,100998.57
2022-10-13T14:05:40.622Z,101000.61
2022-10-13T14:06:38.354Z,100997.16
2022-10-13T14:07:40.007Z,101001.83
2022-10-13T14:09:39.506Z,101000.62
2022-10-13T14:10:40.528Z,101001.05
2022-10-13T14:11:40.428Z,100998.91
2022-10-13T14:12:40.756Z,100998.79
2022-10-13T14:13:41.475Z,100996.88
2022-10-13T14:14:41.486Z,100997.73
2022-10-13T14:15:41.886Z,100998.81
2022-10-13T14:16:42.307Z,100996
2022-10-13T14:17:42.841Z,100997.19
2022-10-13T14:18:43.136Z,100998.94
2022-10-13T14:19:43.570Z,100995.96
2022-10-13T14:20:43.926Z,101003.11
2022-10-13T14:21:44.337Z,100996.89
2022-10-13T14:22:44.808Z,100992.23
2022-10-13T14:23:45.308Z,100995.22
2022-10-13T14:24:45.635Z,100997.45
2022-10-13T14:25:46.156Z,100993.72
2022-10-13T14:26:46.572Z,100991.73
2022-10-13T14:27:46.685Z,100995.64
2022-10-13T14:28:47.271Z,100992.4
2022-10-13T14:29:47.512Z,100991
2022-10-13T14:30:48.140Z,100993.48
2022-10-13T14:31:48.357Z,100989.44
2022-10-13T14:32:48.759Z,100991.03
2022-10-13T14:33:53.981Z,100992.3
2022-10-13T14:34:51.589Z,100989.81
2022-10-13T14:36:56.453Z,100989.9
2022-10-13T14:37:56.899Z,100988.23
2022-10-13T14:38:57.344Z,100989.65
2022-10-13T14:39:57.573Z,100988.25
2022-10-13T14:42:02.992Z,100984.36
2022-10-13T14:43:03.571Z,100985.95
2022-10-13T14:44:03.877Z,100988.62
2022-10-13T14:45:04.920Z,100982.67
2022-10-13T14:46:06.155Z,100981.67
2022-10-13T14:47:05.233Z,100986.23
2022-10-13T14:48:05.963Z,100990.03
2022-10-13T14:49:05.863Z,100991.77
2022-10-13T14:50:07.212Z,100989.77
2022-10-13T14:51:07.926Z,100985.11
2022-10-13T14:52:07.125Z,100986.92
2022-10-13T14:53:07.523Z,100983.61
2022-10-13T14:54:08.167Z,100986.91
2022-10-13T14:55:09.300Z,100988.3
2022-10-13T14:57:11.345Z,100984.03
2022-10-13T14:58:12.483Z,100986.37
2022-10-13T14:59:12.796Z,100981.73
2022-10-13T15:00:14.224Z,100984.73